sensor_id;sensor_type;location;lat;lon;timestamp;temperature;humidity
15636;DHT22;7917;50.818;6.972;2023-02-28T00:00:53;-0.40;99.90
15636;DHT22;7917;50.818;6.972;2023-02-28T00:03:20;-0.40;99.90
15636;DHT22;7917;50.818;6.972;2023-02-28T00:08:38;-0.50;99.90
15636;DHT22;7917;50.818;6.972;2023-02-28T00:11:07;-0.50;99.90
15636;DHT22;7917;50.818;6.972;2023-02-28T00:13:36;-0.60;99.90
15636;DHT22;7917;50.818;6.972;2023-02-28T00:16:11;-0.50;99.90
15636;DHT22;7917;50.818;6.972;2023-02-28T00:18:39;-0.60;99.90
15636;DHT22;7917;50.818;6.972;2023-02-28T00:21:07;-0.60;99.90
15636;DHT22;7917;50.818;6.972;2023-02-28T00:23:35;-0.60;99.90
15636;DHT22;7917;50.818;6.972;2023-02-28T00:26:03;-0.60;99.90
15636;DHT22;7917;50.818;6.972;2023-02-28T00:28:30;-0.60;99.90
15636;DHT22;7917;50.818;6.972;2023-02-28T00:30:57;-0.70;99.90
15636;DHT22;7917;50.818;6.972;2023-02-28T00:33:26;-0.70;99.90
15636;DHT22;7917;50.818;6.972;2023-02-28T00:36:02;-0.70;99.90
15636;DHT22;7917;50.818;6.972;2023-02-28T00:38:30;-0.60;99.90
15636;DHT22;7917;50.818;6.972;2023-02-28T00:40:57;-0.60;99.90
15636;DHT22;7917;50.818;6.972;2023-02-28T00:43:24;-0.70;99.90
15636;DHT22;7917;50.818;6.972;2023-02-28T00:45:52;-0.80;99.90
15636;DHT22;7917;50.818;6.972;2023-02-28T00:48:18;-0.90;99.90
15636;DHT22;7917;50.818;6.972;2023-02-28T00:50:49;-0.90;99.90
15636;DHT22;7917;50.818;6.972;2023-02-28T00:53:16;-1.00;99.90
15636;DHT22;7917;50.818;6.972;2023-02-28T00:55:43;-1.00;99.90
15636;DHT22;7917;50.818;6.972;2023-02-28T00:58:11;-0.90;99.90
15636;DHT22;7917;50.818;6.972;2023-02-28T01:00:37;-0.90;99.90
15636;DHT22;7917;50.818;6.972;2023-02-28T01:03:05;-0.80;99.90
15636;DHT22;7917;50.818;6.972;2023-02-28T01:05:32;-0.80;99.90
15636;DHT22;7917;50.818;6.972;2023-02-28T01:07:59;-0.90;99.90
15636;DHT22;7917;50.818;6.972;2023-02-28T01:10:26;-0.90;99.90
15636;DHT22;7917;50.818;6.972;2023-02-28T01:12:57;-0.90;99.90
15636;DHT22;7917;50.818;6.972;2023-02-28T01:15:24;-0.80;99.90
15636;DHT22;7917;50.818;6.972;2023-02-28T01:17:51;-0.80;99.90
15636;DHT22;7917;50.818;6.972;2023-02-28T01:20:18;-0.80;99.90
15636;DHT22;7917;50.818;6.972;2023-02-28T01:22:46;-0.90;99.90
15636;DHT22;7917;50.818;6.972;2023-02-28T01:25:12;-0.90;99.90
15636;DHT22;7917;50.818;6.972;2023-02-28T01:27:40;-0.90;99.90
15636;DHT22;7917;50.818;6.972;2023-02-28T01:30:08;-0.80;99.90
15636;DHT22;7917;50.818;6.972;2023-02-28T01:32:36;-0.90;99.90
15636;DHT22;7917;50.818;6.972;2023-02-28T01:35:04;-0.80;99.90
15636;DHT22;7917;50.818;6.972;2023-02-28T01:37:32;-0.90;99.90
15636;DHT22;7917;50.818;6.972;2023-02-28T01:39:58;-0.90;99.90
15636;DHT22;7917;50.818;6.972;2023-02-28T01:42:25;-1.00;99.90
15636;DHT22;7917;50.818;6.972;2023-02-28T01:45:04;-1.10;99.90
15636;DHT22;7917;50.818;6.972;2023-02-28T01:47:34;-1.10;99.90
15636;DHT22;7917;50.818;6.972;2023-02-28T01:50:06;-1.20;99.90
15636;DHT22;7917;50.818;6.972;2023-02-28T01:55:50;-1.10;99.90
15636;DHT22;7917;50.818;6.972;2023-02-28T01:58:19;-1.20;99.90
15636;DHT22;7917;50.818;6.972;2023-02-28T02:00:46;-1.10;99.90
15636;DHT22;7917;50.818;6.972;2023-02-28T02:03:15;-1.20;99.90
15636;DHT22;7917;50.818;6.972;2023-02-28T02:05:46;-1.30;99.90
15636;DHT22;7917;50.818;6.972;2023-02-28T02:08:17;-1.40;99.90
15636;DHT22;7917;50.818;6.972;2023-02-28T02:10:46;-1.50;99.90
15636;DHT22;7917;50.818;6.972;2023-02-28T02:13:51;-1.60;99.90
15636;DHT22;7917;50.818;6.972;2023-02-28T02:16:33;-1.70;99.90
15636;DHT22;7917;50.818;6.972;2023-02-28T02:19:11;-1.60;99.90
15636;DHT22;7917;50.818;6.972;2023-02-28T02:22:12;-1.60;99.90
15636;DHT22;7917;50.818;6.972;2023-02-28T02:28:20;-1.70;99.90
15636;DHT22;7917;50.818;6.972;2023-02-28T02:31:19;-1.50;99.90
15636;DHT22;7917;50.818;6.972;2023-02-28T02:34:24;-1.60;99.90
15636;DHT22;7917;50.818;6.972;2023-02-28T02:37:01;-1.70;99.90
15636;DHT22;7917;50.818;6.972;2023-02-28T02:39:38;-1.60;99.90
15636;DHT22;7917;50.818;6.972;2023-02-28T02:42:14;-1.40;99.90
15636;DHT22;7917;50.818;6.972;2023-02-28T02:44:46;-1.40;99.90
15636;DHT22;7917;50.818;6.972;2023-02-28T02:47:17;-1.40;99.90
15636;DHT22;7917;50.818;6.972;2023-02-28T02:49:48;-1.40;99.90
15636;DHT22;7917;50.818;6.972;2023-02-28T02:52:20;-1.40;99.90
15636;DHT22;7917;50.818;6.972;2023-02-28T02:54:49;-1.50;99.90
15636;DHT22;7917;50.818;6.972;2023-02-28T02:57:24;-1.50;99.90
15636;DHT22;7917;50.818;6.972;2023-02-28T02:59:53;-1.60;99.90
15636;DHT22;7917;50.818;6.972;2023-02-28T03:02:22;-1.50;99.90
15636;DHT22;7917;50.818;6.972;2023-02-28T03:04:58;-1.60;99.90
15636;DHT22;7917;50.818;6.972;2023-02-28T03:07:27;-1.70;99.90
15636;DHT22;7917;50.818;6.972;2023-02-28T03:09:56;-1.70;99.90
15636;DHT22;7917;50.818;6.972;2023-02-28T03:12:27;-1.70;99.90
15636;DHT22;7917;50.818;6.972;2023-02-28T03:15:06;-1.60;99.90
15636;DHT22;7917;50.818;6.972;2023-02-28T03:17:54;-1.60;99.90
15636;DHT22;7917;50.818;6.972;2023-02-28T03:20:35;-1.60;99.90
15636;DHT22;7917;50.818;6.972;2023-02-28T03:23:12;-1.50;99.90
15636;DHT22;7917;50.818;6.972;2023-02-28T03:28:48;-1.60;99.90
15636;DHT22;7917;50.818;6.972;2023-02-28T03:31:20;-1.50;99.90
15636;DHT22;7917;50.818;6.972;2023-02-28T03:33:54;-1.50;99.90
15636;DHT22;7917;50.818;6.972;2023-02-28T03:36:25;-1.60;99.90
15636;DHT22;7917;50.818;6.972;2023-02-28T03:38:59;-1.40;99.90
15636;DHT22;7917;50.818;6.972;2023-02-28T03:41:31;-1.40;99.90
15636;DHT22;7917;50.818;6.972;2023-02-28T03:44:03;-1.50;99.90
15636;DHT22;7917;50.818;6.972;2023-02-28T03:46:35;-1.50;99.90
15636;DHT22;7917;50.818;6.972;2023-02-28T03:49:08;-1.60;99.90
15636;DHT22;7917;50.818;6.972;2023-02-28T03:51:41;-1.60;99.90
15636;DHT22;7917;50.818;6.972;2023-02-28T03:54:12;-1.70;99.90
15636;DHT22;7917;50.818;6.972;2023-02-28T03:56:46;-1.70;99.90
15636;DHT22;7917;50.818;6.972;2023-02-28T03:59:17;-1.80;99.90
15636;DHT22;7917;50.818;6.972;2023-02-28T04:02:22;-1.80;99.90
15636;DHT22;7917;50.818;6.972;2023-02-28T04:04:50;-1.90;99.90
15636;DHT22;7917;50.818;6.972;2023-02-28T04:07:17;-2.00;99.90
15636;DHT22;7917;50.818;6.972;2023-02-28T04:09:44;-2.00;99.90
15636;DHT22;7917;50.818;6.972;2023-02-28T04:12:11;-2.00;99.90
15636;DHT22;7917;50.818;6.972;2023-02-28T04:14:38;-2.00;99.90
15636;DHT22;7917;50.818;6.972;2023-02-28T04:17:04;-1.90;99.90
15636;DHT22;7917;50.818;6.972;2023-02-28T04:19:31;-1.90;99.90
15636;DHT22;7917;50.818;6.972;2023-02-28T04:21:57;-1.90;99.90
15636;DHT22;7917;50.818;6.972;2023-02-28T04:24:26;-1.90;99.90
15636;DHT22;7917;50.818;6.972;2023-02-28T04:26:55;-2.00;99.90
15636;DHT22;7917;50.818;6.972;2023-02-28T04:29:23;-2.00;99.90
15636;DHT22;7917;50.818;6.972;2023-02-28T04:31:50;-2.10;99.90
15636;DHT22;7917;50.818;6.972;2023-02-28T04:35:01;-2.20;99.90
15636;DHT22;7917;50.818;6.972;2023-02-28T04:37:52;-2.30;99.90
15636;DHT22;7917;50.818;6.972;2023-02-28T04:40:19;-2.40;99.90
15636;DHT22;7917;50.818;6.972;2023-02-28T04:42:46;-2.40;99.90
15636;DHT22;7917;50.818;6.972;2023-02-28T04:45:13;-2.50;99.90
15636;DHT22;7917;50.818;6.972;2023-02-28T04:47:40;-2.50;99.90
15636;DHT22;7917;50.818;6.972;2023-02-28T04:50:08;-2.50;99.90
15636;DHT22;7917;50.818;6.972;2023-02-28T04:52:35;-2.50;99.90
15636;DHT22;7917;50.818;6.972;2023-02-28T04:55:01;-2.60;99.90
15636;DHT22;7917;50.818;6.972;2023-02-28T04:57:28;-2.50;99.90
15636;DHT22;7917;50.818;6.972;2023-02-28T04:59:55;-2.60;99.90
15636;DHT22;7917;50.818;6.972;2023-02-28T05:02:22;-2.60;99.90
15636;DHT22;7917;50.818;6.972;2023-02-28T05:04:57;-2.60;99.90
15636;DHT22;7917;50.818;6.972;2023-02-28T05:07:23;-2.60;99.90
15636;DHT22;7917;50.818;6.972;2023-02-28T05:09:49;-2.60;99.90
15636;DHT22;7917;50.818;6.972;2023-02-28T05:12:16;-2.50;99.90
15636;DHT22;7917;50.818;6.972;2023-02-28T05:14:43;-2.50;99.90
15636;DHT22;7917;50.818;6.972;2023-02-28T05:17:10;-2.40;99.90
15636;DHT22;7917;50.818;6.972;2023-02-28T05:19:36;-2.30;99.90
15636;DHT22;7917;50.818;6.972;2023-02-28T05:22:03;-2.20;99.90
15636;DHT22;7917;50.818;6.972;2023-02-28T05:24:30;-2.10;99.90
15636;DHT22;7917;50.818;6.972;2023-02-28T05:26:56;-2.00;99.90
15636;DHT22;7917;50.818;6.972;2023-02-28T05:29:24;-1.90;99.90
15636;DHT22;7917;50.818;6.972;2023-02-28T05:31:51;-1.90;99.90
15636;DHT22;7917;50.818;6.972;2023-02-28T05:34:18;-2.00;99.90
15636;DHT22;7917;50.818;6.972;2023-02-28T05:36:44;-2.00;99.90
15636;DHT22;7917;50.818;6.972;2023-02-28T05:39:12;-2.20;99.90
15636;DHT22;7917;50.818;6.972;2023-02-28T05:41:43;-2.20;99.90
15636;DHT22;7917;50.818;6.972;2023-02-28T05:44:10;-2.20;99.90
15636;DHT22;7917;50.818;6.972;2023-02-28T05:46:36;-2.20;99.90
15636;DHT22;7917;50.818;6.972;2023-02-28T05:49:04;-2.30;99.90
15636;DHT22;7917;50.818;6.972;2023-02-28T05:51:35;-2.10;99.90
15636;DHT22;7917;50.818;6.972;2023-02-28T05:54:02;-2.00;99.90
15636;DHT22;7917;50.818;6.972;2023-02-28T05:56:29;-2.10;99.90
15636;DHT22;7917;50.818;6.972;2023-02-28T05:58:55;-2.00;99.90
15636;DHT22;7917;50.818;6.972;2023-02-28T06:01:40;-1.10;99.90
15636;DHT22;7917;50.818;6.972;2023-02-28T06:04:09;-1.80;99.90
15636;DHT22;7917;50.818;6.972;2023-02-28T06:06:36;-1.90;99.90
15636;DHT22;7917;50.818;6.972;2023-02-28T06:09:03;-1.80;99.90
15636;DHT22;7917;50.818;6.972;2023-02-28T06:11:30;-1.80;99.90
15636;DHT22;7917;50.818;6.972;2023-02-28T06:13:58;-1.80;99.90
15636;DHT22;7917;50.818;6.972;2023-02-28T06:16:25;-1.70;99.90
15636;DHT22;7917;50.818;6.972;2023-02-28T06:18:52;-1.70;99.90
15636;DHT22;7917;50.818;6.972;2023-02-28T06:21:22;-1.70;99.90
15636;DHT22;7917;50.818;6.972;2023-02-28T06:23:49;-1.70;99.90
15636;DHT22;7917;50.818;6.972;2023-02-28T06:26:16;-1.80;99.90
15636;DHT22;7917;50.818;6.972;2023-02-28T06:28:42;-1.80;99.90
15636;DHT22;7917;50.818;6.972;2023-02-28T06:31:10;-1.90;99.90
15636;DHT22;7917;50.818;6.972;2023-02-28T06:33:39;-1.90;99.90
15636;DHT22;7917;50.818;6.972;2023-02-28T06:36:06;-1.90;99.90
15636;DHT22;7917;50.818;6.972;2023-02-28T06:38:34;-1.80;99.90
15636;DHT22;7917;50.818;6.972;2023-02-28T06:41:01;-1.80;99.90
15636;DHT22;7917;50.818;6.972;2023-02-28T06:43:28;-1.70;99.90
15636;DHT22;7917;50.818;6.972;2023-02-28T06:45:56;-1.70;99.90
15636;DHT22;7917;50.818;6.972;2023-02-28T06:48:23;-1.70;99.90
15636;DHT22;7917;50.818;6.972;2023-02-28T06:50:49;-1.70;99.90
15636;DHT22;7917;50.818;6.972;2023-02-28T06:53:17;-1.60;99.90
15636;DHT22;7917;50.818;6.972;2023-02-28T06:55:44;-1.70;99.90
15636;DHT22;7917;50.818;6.972;2023-02-28T06:58:11;-1.60;99.90
15636;DHT22;7917;50.818;6.972;2023-02-28T07:00:41;-1.60;99.90
15636;DHT22;7917;50.818;6.972;2023-02-28T07:03:08;-1.50;99.90
15636;DHT22;7917;50.818;6.972;2023-02-28T07:05:35;-1.40;99.90
15636;DHT22;7917;50.818;6.972;2023-02-28T07:08:01;-1.30;99.90
15636;DHT22;7917;50.818;6.972;2023-02-28T07:10:28;-1.20;99.90
15636;DHT22;7917;50.818;6.972;2023-02-28T07:12:55;-1.00;99.90
15636;DHT22;7917;50.818;6.972;2023-02-28T07:15:22;-0.90;99.90
15636;DHT22;7917;50.818;6.972;2023-02-28T07:17:49;0.30;99.90
15636;DHT22;7917;50.818;6.972;2023-02-28T07:20:16;-0.60;99.90
15636;DHT22;7917;50.818;6.972;2023-02-28T07:22:42;-0.40;99.90
15636;DHT22;7917;50.818;6.972;2023-02-28T07:25:09;0.60;99.90
15636;DHT22;7917;50.818;6.972;2023-02-28T07:27:36;-0.20;99.90
15636;DHT22;7917;50.818;6.972;2023-02-28T07:30:05;0.20;99.90
15636;DHT22;7917;50.818;6.972;2023-02-28T07:32:31;0.00;99.90
15636;DHT22;7917;50.818;6.972;2023-02-28T07:34:59;0.20;99.90
15636;DHT22;7917;50.818;6.972;2023-02-28T07:37:25;0.20;99.90
15636;DHT22;7917;50.818;6.972;2023-02-28T07:43:13;0.50;99.90
15636;DHT22;7917;50.818;6.972;2023-02-28T07:45:40;0.50;99.90
15636;DHT22;7917;50.818;6.972;2023-02-28T07:48:07;0.60;99.90
15636;DHT22;7917;50.818;6.972;2023-02-28T07:50:35;0.70;99.90
15636;DHT22;7917;50.818;6.972;2023-02-28T07:53:03;0.80;99.90
15636;DHT22;7917;50.818;6.972;2023-02-28T07:55:30;0.90;99.90
15636;DHT22;7917;50.818;6.972;2023-02-28T07:57:57;1.10;99.90
15636;DHT22;7917;50.818;6.972;2023-02-28T08:00:24;1.10;99.90
15636;DHT22;7917;50.818;6.972;2023-02-28T08:02:51;1.20;99.90
15636;DHT22;7917;50.818;6.972;2023-02-28T08:05:18;1.30;99.90
15636;DHT22;7917;50.818;6.972;2023-02-28T08:07:44;1.50;99.90
15636;DHT22;7917;50.818;6.972;2023-02-28T08:10:11;1.60;99.90
15636;DHT22;7917;50.818;6.972;2023-02-28T08:12:38;1.70;99.90
15636;DHT22;7917;50.818;6.972;2023-02-28T08:15:06;1.80;99.90
15636;DHT22;7917;50.818;6.972;2023-02-28T08:17:32;1.90;99.90
15636;DHT22;7917;50.818;6.972;2023-02-28T08:20:01;2.10;99.90
15636;DHT22;7917;50.818;6.972;2023-02-28T08:22:29;2.30;99.90
15636;DHT22;7917;50.818;6.972;2023-02-28T08:24:56;2.30;99.90
15636;DHT22;7917;50.818;6.972;2023-02-28T08:27:22;2.40;99.90
15636;DHT22;7917;50.818;6.972;2023-02-28T08:33:10;2.70;99.90
15636;DHT22;7917;50.818;6.972;2023-02-28T08:35:38;2.90;99.90
15636;DHT22;7917;50.818;6.972;2023-02-28T08:38:04;3.00;99.90
15636;DHT22;7917;50.818;6.972;2023-02-28T08:40:31;3.10;99.90
15636;DHT22;7917;50.818;6.972;2023-02-28T08:42:57;3.00;99.90
15636;DHT22;7917;50.818;6.972;2023-02-28T08:45:24;3.00;99.90
15636;DHT22;7917;50.818;6.972;2023-02-28T08:47:50;3.10;99.90
15636;DHT22;7917;50.818;6.972;2023-02-28T08:50:18;3.10;99.90
15636;DHT22;7917;50.818;6.972;2023-02-28T08:52:45;3.20;99.90
15636;DHT22;7917;50.818;6.972;2023-02-28T08:55:12;3.30;99.90
15636;DHT22;7917;50.818;6.972;2023-02-28T08:57:39;3.40;99.90
15636;DHT22;7917;50.818;6.972;2023-02-28T09:00:07;3.40;99.90
15636;DHT22;7917;50.818;6.972;2023-02-28T09:02:34;3.50;99.90
15636;DHT22;7917;50.818;6.972;2023-02-28T09:05:01;3.60;99.90
15636;DHT22;7917;50.818;6.972;2023-02-28T09:07:28;3.60;99.90
15636;DHT22;7917;50.818;6.972;2023-02-28T09:09:55;3.80;99.90
15636;DHT22;7917;50.818;6.972;2023-02-28T09:12:24;3.80;99.90
15636;DHT22;7917;50.818;6.972;2023-02-28T09:14:51;3.90;99.90
15636;DHT22;7917;50.818;6.972;2023-02-28T09:17:17;3.80;99.90
15636;DHT22;7917;50.818;6.972;2023-02-28T09:19:44;3.80;99.90
15636;DHT22;7917;50.818;6.972;2023-02-28T09:22:12;3.70;99.90
15636;DHT22;7917;50.818;6.972;2023-02-28T09:24:38;3.60;99.90
15636;DHT22;7917;50.818;6.972;2023-02-28T09:27:06;3.70;99.90
15636;DHT22;7917;50.818;6.972;2023-02-28T09:29:34;3.70;99.90
15636;DHT22;7917;50.818;6.972;2023-02-28T09:32:01;3.60;99.90
15636;DHT22;7917;50.818;6.972;2023-02-28T09:34:28;3.70;99.90
15636;DHT22;7917;50.818;6.972;2023-02-28T09:40:19;3.70;99.90
15636;DHT22;7917;50.818;6.972;2023-02-28T09:42:53;3.60;99.90
15636;DHT22;7917;50.818;6.972;2023-02-28T09:45:26;3.60;99.90
15636;DHT22;7917;50.818;6.972;2023-02-28T09:47:55;3.60;99.90
15636;DHT22;7917;50.818;6.972;2023-02-28T09:50:30;3.60;99.90
15636;DHT22;7917;50.818;6.972;2023-02-28T09:53:10;3.60;99.90
15636;DHT22;7917;50.818;6.972;2023-02-28T09:55:42;3.50;99.90
15636;DHT22;7917;50.818;6.972;2023-02-28T09:58:17;3.60;99.90
15636;DHT22;7917;50.818;6.972;2023-02-28T10:00:52;3.60;99.90
15636;DHT22;7917;50.818;6.972;2023-02-28T10:03:31;3.50;99.90
15636;DHT22;7917;50.818;6.972;2023-02-28T10:06:05;3.60;99.90
15636;DHT22;7917;50.818;6.972;2023-02-28T10:08:37;3.50;99.90
15636;DHT22;7917;50.818;6.972;2023-02-28T10:11:09;3.50;99.90
15636;DHT22;7917;50.818;6.972;2023-02-28T10:13:43;3.50;99.90
15636;DHT22;7917;50.818;6.972;2023-02-28T10:16:15;3.50;99.90
15636;DHT22;7917;50.818;6.972;2023-02-28T10:18:46;3.60;99.90
15636;DHT22;7917;50.818;6.972;2023-02-28T10:21:18;3.50;99.90
15636;DHT22;7917;50.818;6.972;2023-02-28T10:23:46;3.60;99.90
15636;DHT22;7917;50.818;6.972;2023-02-28T10:26:16;3.80;99.90
15636;DHT22;7917;50.818;6.972;2023-02-28T10:28:45;3.90;99.90
15636;DHT22;7917;50.818;6.972;2023-02-28T10:31:14;3.90;99.90
15636;DHT22;7917;50.818;6.972;2023-02-28T10:33:42;3.90;99.90
15636;DHT22;7917;50.818;6.972;2023-02-28T10:36:14;4.00;99.90
15636;DHT22;7917;50.818;6.972;2023-02-28T10:41:55;4.20;99.90
15636;DHT22;7917;50.818;6.972;2023-02-28T10:44:23;4.40;99.90
15636;DHT22;7917;50.818;6.972;2023-02-28T10:46:53;4.50;99.90
15636;DHT22;7917;50.818;6.972;2023-02-28T10:49:22;4.70;99.90
15636;DHT22;7917;50.818;6.972;2023-02-28T10:51:52;4.80;99.90
15636;DHT22;7917;50.818;6.972;2023-02-28T10:54:20;5.00;99.90
15636;DHT22;7917;50.818;6.972;2023-02-28T10:57:07;5.10;99.90
15636;DHT22;7917;50.818;6.972;2023-02-28T10:59:35;5.10;99.90
15636;DHT22;7917;50.818;6.972;2023-02-28T11:02:02;5.10;99.90
15636;DHT22;7917;50.818;6.972;2023-02-28T11:04:37;5.00;99.90
15636;DHT22;7917;50.818;6.972;2023-02-28T11:07:15;5.30;99.90
15636;DHT22;7917;50.818;6.972;2023-02-28T11:09:46;5.50;99.90
15636;DHT22;7917;50.818;6.972;2023-02-28T11:12:22;5.60;99.90
15636;DHT22;7917;50.818;6.972;2023-02-28T11:18:24;5.70;99.90
15636;DHT22;7917;50.818;6.972;2023-02-28T11:20:54;5.70;99.90
15636;DHT22;7917;50.818;6.972;2023-02-28T11:23:24;5.60;99.90
15636;DHT22;7917;50.818;6.972;2023-02-28T11:25:53;5.70;99.90
15636;DHT22;7917;50.818;6.972;2023-02-28T11:28:27;5.80;99.90
15636;DHT22;7917;50.818;6.972;2023-02-28T11:31:04;5.90;99.90
15636;DHT22;7917;50.818;6.972;2023-02-28T11:33:41;5.90;99.90
15636;DHT22;7917;50.818;6.972;2023-02-28T11:36:13;5.80;99.90
15636;DHT22;7917;50.818;6.972;2023-02-28T11:38:42;5.70;99.90
15636;DHT22;7917;50.818;6.972;2023-02-28T11:41:24;5.60;99.90
15636;DHT22;7917;50.818;6.972;2023-02-28T11:44:15;5.50;99.90
15636;DHT22;7917;50.818;6.972;2023-02-28T11:46:50;5.60;99.90
15636;DHT22;7917;50.818;6.972;2023-02-28T11:49:33;5.70;99.90
15636;DHT22;7917;50.818;6.972;2023-02-28T11:52:05;5.70;99.90
15636;DHT22;7917;50.818;6.972;2023-02-28T11:54:48;5.70;99.90
15636;DHT22;7917;50.818;6.972;2023-02-28T11:57:32;5.70;99.90
15636;DHT22;7917;50.818;6.972;2023-02-28T12:00:06;5.70;99.90
15636;DHT22;7917;50.818;6.972;2023-02-28T12:02:50;5.80;99.90
15636;DHT22;7917;50.818;6.972;2023-02-28T12:05:26;5.80;99.90
15636;DHT22;7917;50.818;6.972;2023-02-28T12:08:05;6.00;99.90
15636;DHT22;7917;50.818;6.972;2023-02-28T12:10:37;6.20;99.90
15636;DHT22;7917;50.818;6.972;2023-02-28T12:13:16;6.10;99.90
15636;DHT22;7917;50.818;6.972;2023-02-28T12:16:09;6.00;99.90
15636;DHT22;7917;50.818;6.972;2023-02-28T12:18:52;6.10;99.90
15636;DHT22;7917;50.818;6.972;2023-02-28T12:21:29;6.40;99.90
15636;DHT22;7917;50.818;6.972;2023-02-28T12:24:21;6.60;99.90
15636;DHT22;7917;50.818;6.972;2023-02-28T12:26:53;6.50;99.90
15636;DHT22;7917;50.818;6.972;2023-02-28T12:29:24;6.00;99.90
15636;DHT22;7917;50.818;6.972;2023-02-28T12:31:56;6.10;99.90
15636;DHT22;7917;50.818;6.972;2023-02-28T12:34:28;6.20;99.90
15636;DHT22;7917;50.818;6.972;2023-02-28T12:37:01;6.40;99.90
15636;DHT22;7917;50.818;6.972;2023-02-28T12:39:33;6.40;99.90
15636;DHT22;7917;50.818;6.972;2023-02-28T12:42:04;6.20;99.90
15636;DHT22;7917;50.818;6.972;2023-02-28T12:44:43;6.00;99.90
15636;DHT22;7917;50.818;6.972;2023-02-28T12:47:14;6.20;99.90
15636;DHT22;7917;50.818;6.972;2023-02-28T12:49:46;6.50;99.90
15636;DHT22;7917;50.818;6.972;2023-02-28T12:52:17;6.50;99.90
15636;DHT22;7917;50.818;6.972;2023-02-28T12:54:50;6.70;99.90
15636;DHT22;7917;50.818;6.972;2023-02-28T12:57:25;6.80;99.90
15636;DHT22;7917;50.818;6.972;2023-02-28T12:59:58;6.70;99.90
15636;DHT22;7917;50.818;6.972;2023-02-28T13:03:06;6.70;99.90
15636;DHT22;7917;50.818;6.972;2023-02-28T13:06:10;6.80;99.90
15636;DHT22;7917;50.818;6.972;2023-02-28T13:09:09;6.80;99.90
15636;DHT22;7917;50.818;6.972;2023-02-28T13:11:43;6.80;99.90
15636;DHT22;7917;50.818;6.972;2023-02-28T13:14:26;6.80;99.90
15636;DHT22;7917;50.818;6.972;2023-02-28T13:17:02;6.70;99.90
15636;DHT22;7917;50.818;6.972;2023-02-28T13:19:33;6.70;99.90
15636;DHT22;7917;50.818;6.972;2023-02-28T13:22:01;6.70;99.90
15636;DHT22;7917;50.818;6.972;2023-02-28T13:24:53;6.70;99.90
15636;DHT22;7917;50.818;6.972;2023-02-28T13:27:35;6.90;99.90
15636;DHT22;7917;50.818;6.972;2023-02-28T13:33:24;7.10;99.90
15636;DHT22;7917;50.818;6.972;2023-02-28T13:36:07;7.00;99.90
15636;DHT22;7917;50.818;6.972;2023-02-28T13:38:42;7.20;99.90
15636;DHT22;7917;50.818;6.972;2023-02-28T13:41:48;7.10;99.90
15636;DHT22;7917;50.818;6.972;2023-02-28T13:44:19;7.00;99.90
15636;DHT22;7917;50.818;6.972;2023-02-28T13:47:23;7.00;99.90
15636;DHT22;7917;50.818;6.972;2023-02-28T13:50:15;7.00;99.90
15636;DHT22;7917;50.818;6.972;2023-02-28T13:52:50;6.90;99.90
15636;DHT22;7917;50.818;6.972;2023-02-28T13:55:27;6.80;99.90
15636;DHT22;7917;50.818;6.972;2023-02-28T13:58:10;6.90;99.90
15636;DHT22;7917;50.818;6.972;2023-02-28T14:00:47;6.80;99.90
15636;DHT22;7917;50.818;6.972;2023-02-28T14:03:37;7.00;99.90
15636;DHT22;7917;50.818;6.972;2023-02-28T14:06:21;7.20;99.90
15636;DHT22;7917;50.818;6.972;2023-02-28T14:08:55;7.20;99.90
15636;DHT22;7917;50.818;6.972;2023-02-28T14:11:32;7.10;99.90
15636;DHT22;7917;50.818;6.972;2023-02-28T14:14:02;7.10;99.90
15636;DHT22;7917;50.818;6.972;2023-02-28T14:16:37;7.00;99.90
15636;DHT22;7917;50.818;6.972;2023-02-28T14:19:12;6.90;99.90
15636;DHT22;7917;50.818;6.972;2023-02-28T14:21:47;7.00;99.90
15636;DHT22;7917;50.818;6.972;2023-02-28T14:27:23;7.20;99.90
15636;DHT22;7917;50.818;6.972;2023-02-28T14:30:15;7.30;99.90
15636;DHT22;7917;50.818;6.972;2023-02-28T14:32:54;7.30;99.90
15636;DHT22;7917;50.818;6.972;2023-02-28T14:35:40;7.20;99.90
15636;DHT22;7917;50.818;6.972;2023-02-28T14:38:17;7.20;99.90
15636;DHT22;7917;50.818;6.972;2023-02-28T14:40:48;7.10;99.90
15636;DHT22;7917;50.818;6.972;2023-02-28T14:43:20;7.20;99.90
15636;DHT22;7917;50.818;6.972;2023-02-28T14:45:51;7.20;99.90
15636;DHT22;7917;50.818;6.972;2023-02-28T14:48:20;7.20;99.90
15636;DHT22;7917;50.818;6.972;2023-02-28T14:50:52;7.40;99.90
15636;DHT22;7917;50.818;6.972;2023-02-28T14:53:22;7.70;99.90
15636;DHT22;7917;50.818;6.972;2023-02-28T14:55:50;8.20;99.90
15636;DHT22;7917;50.818;6.972;2023-02-28T14:58:26;8.40;99.90
15636;DHT22;7917;50.818;6.972;2023-02-28T15:00:55;8.90;99.90
15636;DHT22;7917;50.818;6.972;2023-02-28T15:03:24;9.20;99.90
15636;DHT22;7917;50.818;6.972;2023-02-28T15:05:55;9.20;99.90
15636;DHT22;7917;50.818;6.972;2023-02-28T15:08:24;9.30;99.90
15636;DHT22;7917;50.818;6.972;2023-02-28T15:10:54;9.40;99.90
15636;DHT22;7917;50.818;6.972;2023-02-28T15:13:21;10.10;99.90
15636;DHT22;7917;50.818;6.972;2023-02-28T15:15:53;10.10;99.90
15636;DHT22;7917;50.818;6.972;2023-02-28T15:18:30;10.40;99.90
15636;DHT22;7917;50.818;6.972;2023-02-28T15:21:03;10.90;99.90
15636;DHT22;7917;50.818;6.972;2023-02-28T15:23:32;11.00;99.90
15636;DHT22;7917;50.818;6.972;2023-02-28T15:26:01;11.00;99.90
15636;DHT22;7917;50.818;6.972;2023-02-28T15:28:29;10.90;99.90
15636;DHT22;7917;50.818;6.972;2023-02-28T15:30:58;10.80;99.90
15636;DHT22;7917;50.818;6.972;2023-02-28T15:33:27;10.30;99.90
15636;DHT22;7917;50.818;6.972;2023-02-28T15:36:12;9.80;99.90
15636;DHT22;7917;50.818;6.972;2023-02-28T15:38:41;9.10;99.90
15636;DHT22;7917;50.818;6.972;2023-02-28T15:41:22;8.40;99.90
15636;DHT22;7917;50.818;6.972;2023-02-28T15:44:14;8.00;99.90
15636;DHT22;7917;50.818;6.972;2023-02-28T15:46:43;7.70;99.90
15636;DHT22;7917;50.818;6.972;2023-02-28T15:49:19;7.60;99.90
15636;DHT22;7917;50.818;6.972;2023-02-28T15:51:49;7.20;99.90
15636;DHT22;7917;50.818;6.972;2023-02-28T15:54:20;6.90;99.90
15636;DHT22;7917;50.818;6.972;2023-02-28T15:56:52;6.70;99.90
15636;DHT22;7917;50.818;6.972;2023-02-28T15:59:22;6.40;99.90
15636;DHT22;7917;50.818;6.972;2023-02-28T16:02:11;6.30;99.90
15636;DHT22;7917;50.818;6.972;2023-02-28T16:04:55;6.30;99.90
15636;DHT22;7917;50.818;6.972;2023-02-28T16:07:22;6.30;99.90
15636;DHT22;7917;50.818;6.972;2023-02-28T16:09:51;6.30;99.90
15636;DHT22;7917;50.818;6.972;2023-02-28T16:12:19;6.40;99.90
15636;DHT22;7917;50.818;6.972;2023-02-28T16:14:48;6.50;99.90
15636;DHT22;7917;50.818;6.972;2023-02-28T16:17:21;6.30;99.90
15636;DHT22;7917;50.818;6.972;2023-02-28T16:19:48;6.10;99.90
15636;DHT22;7917;50.818;6.972;2023-02-28T16:22:16;6.00;99.90
15636;DHT22;7917;50.818;6.972;2023-02-28T16:24:43;5.90;99.90
15636;DHT22;7917;50.818;6.972;2023-02-28T16:27:17;5.80;99.90
15636;DHT22;7917;50.818;6.972;2023-02-28T16:29:45;5.60;99.90
15636;DHT22;7917;50.818;6.972;2023-02-28T16:32:14;5.50;99.90
15636;DHT22;7917;50.818;6.972;2023-02-28T16:34:41;5.40;99.90
15636;DHT22;7917;50.818;6.972;2023-02-28T16:37:12;5.30;99.90
15636;DHT22;7917;50.818;6.972;2023-02-28T16:39:41;5.20;99.90
15636;DHT22;7917;50.818;6.972;2023-02-28T16:42:14;5.10;99.90
15636;DHT22;7917;50.818;6.972;2023-02-28T16:44:42;5.00;99.90
15636;DHT22;7917;50.818;6.972;2023-02-28T16:47:10;4.90;99.90
15636;DHT22;7917;50.818;6.972;2023-02-28T16:49:39;4.80;99.90
15636;DHT22;7917;50.818;6.972;2023-02-28T16:52:08;4.70;99.90
15636;DHT22;7917;50.818;6.972;2023-02-28T16:54:35;4.70;99.90
15636;DHT22;7917;50.818;6.972;2023-02-28T16:57:03;4.60;99.90
15636;DHT22;7917;50.818;6.972;2023-02-28T16:59:31;4.60;99.90